Date,TemperatureHighF,TemperatureAvgF,TemperatureLowF,DewpointHighF,DewpointAvgF,DewpointLowF,HumidityHigh,HumidityAvg,HumidityLow,PressureMaxIn,PressureMinIn,WindSpeedMaxMPH,WindSpeedAvgMPH,GustSpeedMaxMPH,PrecipitationSumIn
2012-12-1,28,27,25,25,19,7,91,75,40,30.57,30.44,8,3,10,0.00
2012-12-2,50,38,27,45,35,25,96,89,78,30.44,29.97,10,2,16,0.03
2012-12-3,56,51,42,45,42,37,92,72,59,30.19,29.99,19,5,21,0.00
2012-12-4,54,45,34,51,42,33,95,92,90,30.26,30.04,13,3,15,0.00
2012-12-5,55,49,39,51,37,23,86,63,52,29.97,29.78,24,9,30,0.01
2012-12-6,39,32,27,18,17,15,69,54,41,30.26,30.08,14,4,22,0.00
2012-12-7,43,33,21,37,27,17,94,78,69,30.23,30.01,10,2,11,0.00
2012-12-8,42,40,39,41,39,38,96,95,93,29.97,29.80,7,1,10,0.01
2012-12-9,44,40,34,42,35,30,96,84,61,30.24,29.88,7,2,10,0.01
2012-12-10,58,48,44,56,47,43,96,96,94,29.80,29.45,8,1,9,0.01
2012-12-11,45,42,37,40,33,26,92,72,55,29.98,29.63,19,5,19,0.02
2012-12-12,36,32,27,23,22,21,80,68,55,30.34,30.22,8,2,9,0.41
2012-12-13,42,30,22,28,24,20,92,78,49,30.41,30.29,8,1,8,0.14
2012-12-14,48,38,24,27,23,18,90,58,31,30.16,29.98,19,4,19,0.12
2012-12-15,39,32,26,26,22,17,90,69,40,30.28,30.09,12,2,16,0.02
2012-12-16,29,27,26,27,22,18,94,82,71,30.27,30.03,7,2,11,0.00
2012-12-17,31,28,26,30,27,24,95,94,93,30.03,29.84,9,3,11,0.00
2012-12-18,46,43,37,45,42,36,96,96,95,29.54,29.34,16,3,21,1.24
2012-12-19,44,40,38,38,33,29,94,76,63,29.83,29.38,27,9,32,0.01
2012-12-20,40,35,26,31,28,24,93,77,65,30.17,30.06,11,2,11,0.00
2012-12-21,52,46,41,49,42,36,94,87,73,29.65,29.01,43,15,43,0.53
2012-12-22,37,32,27,31,22,14,85,67,52,29.57,29.16,23,8,28,0.01
2012-12-23,37,31,26,24,19,14,78,60,47,29.81,29.57,18,5,26,0.00
2012-12-24,39,33,26,21,19,16,71,56,41,30.00,29.89,13,3,15,0.00
2012-12-25,32,29,27,26,24,19,87,80,67,30.09,29.94,11,3,11,0.00
2012-12-26,33,26,19,28,16,11,82,68,51,30.27,30.09,14,2,14,0.00
2012-12-27,42,37,30,41,35,28,94,93,88,29.87,29.21,28,10,30,2.11
2012-12-28,35,31,26,23,21,18,74,67,61,29.94,29.74,21,8,24,0.00
2012-12-29,30,27,23,28,24,20,94,86,75,29.95,29.35,10,2,17,0.00
2012-12-30,29,25,20,26,16,7,94,70,51,29.91,29.37,23,9,31,0.00
2012-12-31,32,25,18,23,16,7,73,68,58,29.97,29.80,19,5,21,0.00